Terminal Aerodrome Forecast
Issued by NWS Des Moines, IA

Home | Current Version | Previous Version | Text Only | Print | Product List | Glossary On
Versions: 1 2 3 4 5 6 7 8 9 10 11 12 13 14 15 16 17 18 19 20 21 22 23 24 25 26 27 28 29 30 31 32 33 34 35 36 37 38 39 40 41 42 43
000
FTUS43 KDMX 302320
TAFDSM
TAF
KDSM 302320Z 3100/3124 20007KT P6SM BKN300
     FM311200 23007KT 6SM BR SCT021 BKN060 OVC100
     FM311600 24008KT 6SM -SHRA BR OVC020
     FM312000 15006KT 2SM -RASN BR OVC012=

USA.gov is the U.S. government's official web portal to all federal, state and local government web resources and services.